createdAt,value
2023-02-19T00:00:15.705Z,7.09
2023-02-19T00:04:07.510Z,7.03
2023-02-19T00:08:10.862Z,6.91
2023-02-19T00:12:10.293Z,7.02
2023-02-19T00:16:08.363Z,7.00
2023-02-19T00:20:04.277Z,6.99
2023-02-19T00:24:00.166Z,7.05
2023-02-19T00:27:59.936Z,7.07
2023-02-19T00:31:58.307Z,7.11
2023-02-19T00:35:54.396Z,6.99
2023-02-19T00:39:50.521Z,6.94
2023-02-19T00:43:48.015Z,6.95
2023-02-19T00:47:48.280Z,6.91
2023-02-19T00:51:42.903Z,6.88
2023-02-19T00:55:46.250Z,6.81
2023-02-19T00:59:42.390Z,6.78
2023-02-19T01:03:40.353Z,6.97
2023-02-19T01:07:40.393Z,7.05
2023-02-19T01:11:37.627Z,7.06
2023-02-19T01:15:35.771Z,6.93
2023-02-19T01:19:32.598Z,6.77
2023-02-19T01:23:29.874Z,6.74
2023-02-19T01:27:29.205Z,6.63
2023-02-19T01:31:25.497Z,6.62
2023-02-19T01:35:23.546Z,6.57
2023-02-19T01:39:21.379Z,6.54
2023-02-19T01:43:16.975Z,6.58
2023-02-19T01:47:14.467Z,6.70
2023-02-19T01:51:13.944Z,6.66
2023-02-19T01:55:09.484Z,6.67
2023-02-19T01:59:09.070Z,6.57
2023-02-19T02:03:07.262Z,6.61
2023-02-19T02:07:05.443Z,6.68
2023-02-19T02:11:03.240Z,6.98
2023-02-19T02:15:02.062Z,6.97
2023-02-19T02:18:59.858Z,6.94
2023-02-19T02:22:57.088Z,6.87
2023-02-19T02:26:55.033Z,6.82
2023-02-19T02:30:54.563Z,6.74
2023-02-19T02:34:54.413Z,6.66
2023-02-19T02:38:52.578Z,6.77
2023-02-19T02:42:48.638Z,6.81
2023-02-19T02:46:48.596Z,6.78
2023-02-19T02:50:46.600Z,6.81
2023-02-19T02:54:43.682Z,6.85
2023-02-19T02:58:45.260Z,6.79
2023-02-19T03:02:41.477Z,6.85
2023-02-19T03:06:41.556Z,6.81
2023-02-19T03:10:41.758Z,6.76
2023-02-19T03:14:42.167Z,6.72
2023-02-19T03:18:38.817Z,6.72
2023-02-19T03:22:36.320Z,6.70
2023-02-19T03:26:35.810Z,6.73
2023-02-19T03:30:32.667Z,6.71
2023-02-19T03:34:30.574Z,6.70
2023-02-19T03:38:28.726Z,6.62
2023-02-19T03:42:27.248Z,6.65
2023-02-19T03:46:25.986Z,6.60
2023-02-19T03:50:24.635Z,6.73
2023-02-19T03:54:20.930Z,6.81
2023-02-19T03:58:18.708Z,6.82
2023-02-19T04:02:18.955Z,6.86
2023-02-19T04:06:12.741Z,6.65
2023-02-19T04:10:08.955Z,6.68
2023-02-19T04:14:09.344Z,6.60
2023-02-19T04:18:06.705Z,6.61
2023-02-19T04:22:04.412Z,6.63
2023-02-19T04:26:03.011Z,6.57
2023-02-19T04:30:00.876Z,6.58
2023-02-19T04:33:58.670Z,6.60
2023-02-19T04:37:56.928Z,6.62
2023-02-19T04:41:58.420Z,6.53
2023-02-19T04:45:54.561Z,6.43
2023-02-19T04:49:52.891Z,6.37
2023-02-19T04:53:49.381Z,6.42
2023-02-19T04:57:44.950Z,6.41
2023-02-19T05:01:42.500Z,6.42
2023-02-19T05:05:42.383Z,6.51
2023-02-19T05:09:45.859Z,6.56
2023-02-19T05:13:41.388Z,6.26
2023-02-19T05:17:41.462Z,6.15
2023-02-19T05:21:37.726Z,6.02
2023-02-19T05:25:35.639Z,5.95
2023-02-19T05:29:33.690Z,6.09
2023-02-19T05:33:33.409Z,6.08
2023-02-19T05:37:29.013Z,5.89
2023-02-19T05:41:27.094Z,6.03
2023-02-19T05:45:27.017Z,6.29
2023-02-19T05:49:23.867Z,6.38
2023-02-19T05:53:23.050Z,6.42
2023-02-19T05:57:22.270Z,6.41
2023-02-19T06:01:24.030Z,6.45
2023-02-19T06:05:23.432Z,6.59
2023-02-19T06:09:23.476Z,6.70
2023-02-19T06:13:24.827Z,6.79
2023-02-19T06:17:25.010Z,6.89
2023-02-19T06:21:25.281Z,6.90
2023-02-19T06:25:20.918Z,6.96
2023-02-19T06:29:20.876Z,7.01
2023-02-19T06:33:16.088Z,7.09
2023-02-19T06:37:14.371Z,7.29
2023-02-19T06:41:12.562Z,7.39
2023-02-19T06:45:12.529Z,7.30
2023-02-19T06:49:10.075Z,7.45
2023-02-19T06:53:07.093Z,7.65
2023-02-19T06:57:05.119Z,7.87
2023-02-19T07:01:02.138Z,8.04
2023-02-19T07:04:59.422Z,8.19
2023-02-19T07:08:59.614Z,8.29
2023-02-19T07:12:57.738Z,8.39
2023-02-19T07:17:01.072Z,8.50
2023-02-19T07:21:00.728Z,8.67
2023-02-19T07:24:59.156Z,8.80
2023-02-19T07:29:00.096Z,8.98
2023-02-19T07:32:59.127Z,9.11
2023-02-19T07:36:58.869Z,9.19
2023-02-19T07:40:59.284Z,9.13
2023-02-19T07:45:00.700Z,9.19
2023-02-19T07:49:00.114Z,9.29
2023-02-19T07:52:58.326Z,9.37
2023-02-19T07:56:55.630Z,9.39
2023-02-19T08:00:56.315Z,9.44
2023-02-19T08:05:00.458Z,9.51
2023-02-19T08:09:01.671Z,9.45
2023-02-19T08:13:01.333Z,9.66
2023-02-19T08:16:59.037Z,9.57
2023-02-19T08:20:58.783Z,9.67
2023-02-19T08:24:56.162Z,9.92
2023-02-19T08:28:54.439Z,9.99
2023-02-19T08:32:54.375Z,9.92
2023-02-19T08:36:56.146Z,9.94
2023-02-19T08:40:54.416Z,9.82
2023-02-19T08:44:54.499Z,9.94
2023-02-19T08:48:54.416Z,9.81
2023-02-19T08:52:52.450Z,9.81
2023-02-19T08:56:52.411Z,10.02
2023-02-19T09:00:52.415Z,10.00
2023-02-19T09:04:53.404Z,9.68
2023-02-19T09:08:51.413Z,9.63
2023-02-19T09:12:38.236Z,9.49
2023-02-19T09:16:23.823Z,9.43
2023-02-19T09:20:09.334Z,9.46
2023-02-19T09:23:54.858Z,9.70
2023-02-19T09:27:40.314Z,10.00
2023-02-19T09:31:27.147Z,10.39
2023-02-19T09:35:12.589Z,10.44
2023-02-19T09:38:59.345Z,10.18
2023-02-19T09:42:45.038Z,9.91
2023-02-19T09:46:30.642Z,9.91
2023-02-19T09:50:16.572Z,9.82
2023-02-19T09:54:02.073Z,9.70
2023-02-19T09:57:48.544Z,9.76
2023-02-19T10:01:41.047Z,9.93
2023-02-19T10:05:33.519Z,10.09
2023-02-19T10:09:37.510Z,9.84
2023-02-19T10:13:38.279Z,10.06
2023-02-19T10:17:36.362Z,10.47
2023-02-19T10:21:34.560Z,10.48
2023-02-19T10:25:19.744Z,10.61
2023-02-19T10:29:09.205Z,10.52
2023-02-19T10:32:56.840Z,10.44
2023-02-19T10:36:42.685Z,10.23
2023-02-19T10:40:28.539Z,9.90
2023-02-19T10:44:13.810Z,9.95
2023-02-19T10:47:59.244Z,9.98
2023-02-19T10:51:44.934Z,10.07
2023-02-19T10:55:38.043Z,10.02
2023-02-19T10:59:31.939Z,10.07
2023-02-19T11:03:04.343Z,10.12
2023-02-19T11:06:56.362Z,10.15
2023-02-19T11:10:50.973Z,10.28
2023-02-19T11:14:49.244Z,10.49
2023-02-19T11:18:47.293Z,10.50
2023-02-19T11:22:47.045Z,10.39
2023-02-19T11:26:45.722Z,10.19
2023-02-19T11:30:43.630Z,10.00
2023-02-19T11:34:40.906Z,9.93
2023-02-19T11:38:38.853Z,9.92
2023-02-19T11:42:36.369Z,9.94
2023-02-19T11:46:32.881Z,9.93
2023-02-19T11:50:18.412Z,9.84
2023-02-19T11:54:06.852Z,9.63
2023-02-19T11:57:58.524Z,9.54
2023-02-19T12:01:43.625Z,9.41
2023-02-19T12:05:47.598Z,9.32
2023-02-19T12:09:26.693Z,9.21
2023-02-19T12:13:25.785Z,9.27
2023-02-19T12:17:27.744Z,9.21
2023-02-19T12:21:29.706Z,9.17
2023-02-19T12:25:29.739Z,9.18
2023-02-19T12:29:28.571Z,9.04
2023-02-19T12:33:30.333Z,8.97
2023-02-19T12:37:30.600Z,9.09
2023-02-19T12:41:32.777Z,9.21
2023-02-19T12:45:30.745Z,9.26
2023-02-19T12:49:28.700Z,9.20
2023-02-19T12:53:29.902Z,9.17
2023-02-19T12:57:30.307Z,9.14
2023-02-19T13:01:30.603Z,9.29
2023-02-19T13:05:28.853Z,9.31
2023-02-19T13:09:31.862Z,9.36
2023-02-19T13:13:31.909Z,9.32
2023-02-19T13:17:32.767Z,9.32
2023-02-19T13:21:32.808Z,9.32
2023-02-19T13:25:32.859Z,9.25
2023-02-19T13:29:34.878Z,9.32
2023-02-19T13:33:35.773Z,9.34
2023-02-19T13:37:34.801Z,9.32
2023-02-19T13:41:32.640Z,9.32
2023-02-19T13:45:32.761Z,9.16
2023-02-19T13:49:30.939Z,8.98
2023-02-19T13:53:31.215Z,8.90
2023-02-19T13:57:30.777Z,8.88
2023-02-19T14:01:30.926Z,8.85
2023-02-19T14:05:31.874Z,8.84
2023-02-19T14:09:30.125Z,8.86
2023-02-19T14:13:28.577Z,8.83
2023-02-19T14:17:26.964Z,8.83
2023-02-19T14:21:27.235Z,8.81
2023-02-19T14:25:27.374Z,8.75
2023-02-19T14:29:27.383Z,8.76
2023-02-19T14:33:27.368Z,8.67
2023-02-19T14:37:24.596Z,8.55
2023-02-19T14:41:22.916Z,8.48
2023-02-19T14:45:23.332Z,8.46
2023-02-19T14:49:21.923Z,8.36
2023-02-19T14:53:21.731Z,8.31
2023-02-19T14:57:21.248Z,8.25
2023-02-19T15:01:19.420Z,8.27
2023-02-19T15:05:17.788Z,8.22
2023-02-19T15:09:16.672Z,8.18
2023-02-19T15:13:16.801Z,8.06
2023-02-19T15:17:17.008Z,7.94
2023-02-19T15:21:17.518Z,7.76
2023-02-19T15:25:16.353Z,7.73
2023-02-19T15:29:14.613Z,7.66
2023-02-19T15:33:14.146Z,7.68
2023-02-19T15:37:14.433Z,7.66
2023-02-19T15:41:14.614Z,7.66
2023-02-19T15:45:12.491Z,7.55
2023-02-19T15:49:10.449Z,7.49
2023-02-19T15:53:10.658Z,7.57
2023-02-19T15:57:10.821Z,7.56
2023-02-19T16:01:09.819Z,7.52
2023-02-19T16:05:07.968Z,7.47
2023-02-19T16:09:06.028Z,7.32
2023-02-19T16:12:57.810Z,7.31
2023-02-19T16:16:49.849Z,7.30
2023-02-19T16:20:43.241Z,7.43
2023-02-19T16:24:37.868Z,7.30
2023-02-19T16:28:30.648Z,7.26
2023-02-19T16:32:25.213Z,7.23
2023-02-19T16:36:19.262Z,7.17
2023-02-19T16:40:04.888Z,7.02
2023-02-19T16:43:50.514Z,7.12
2023-02-19T16:47:44.617Z,7.09
2023-02-19T16:51:39.071Z,7.03
2023-02-19T16:55:33.137Z,6.98
2023-02-19T16:59:27.063Z,6.91
2023-02-19T17:03:19.423Z,6.86
2023-02-19T17:07:13.533Z,6.85
2023-02-19T17:11:07.747Z,6.82
2023-02-19T17:15:00.336Z,6.68
2023-02-19T17:18:52.095Z,6.76
2023-02-19T17:22:46.411Z,6.85
2023-02-19T17:26:38.180Z,6.90
2023-02-19T17:30:33.796Z,6.86
2023-02-19T17:34:26.006Z,6.94
2023-02-19T17:38:18.185Z,6.82
2023-02-19T17:42:11.963Z,6.78
2023-02-19T17:46:05.481Z,6.70
2023-02-19T17:49:58.983Z,6.64
2023-02-19T17:53:51.027Z,6.37
2023-02-19T17:57:43.205Z,6.30
2023-02-19T18:01:34.819Z,6.14
2023-02-19T18:05:27.112Z,6.00
2023-02-19T18:09:24.799Z,5.90
2023-02-19T18:13:17.463Z,5.82
2023-02-19T18:17:12.206Z,5.60
2023-02-19T18:21:03.965Z,5.56
2023-02-19T18:24:59.845Z,5.45
2023-02-19T18:28:53.224Z,5.40
2023-02-19T18:32:45.319Z,5.35
2023-02-19T18:36:41.586Z,5.29
2023-02-19T18:40:15.028Z,5.16
2023-02-19T18:44:07.517Z,5.14
2023-02-19T18:48:03.777Z,5.09
2023-02-19T18:51:37.536Z,5.09
2023-02-19T18:55:31.238Z,4.93
2023-02-19T18:59:27.330Z,5.02
2023-02-19T19:03:21.471Z,5.14
2023-02-19T19:07:13.408Z,5.23
2023-02-19T19:11:07.402Z,5.34
2023-02-19T19:14:59.275Z,5.32
2023-02-19T19:18:52.156Z,5.18
2023-02-19T19:22:44.418Z,5.23
2023-02-19T19:26:39.434Z,5.22
2023-02-19T19:30:32.087Z,5.27
2023-02-19T19:34:26.509Z,5.39
2023-02-19T19:38:23.261Z,5.58
2023-02-19T19:42:16.753Z,5.54
2023-02-19T19:46:09.147Z,5.66
2023-02-19T19:50:03.816Z,5.80
2023-02-19T19:53:56.264Z,5.77
2023-02-19T19:57:48.178Z,5.77
2023-02-19T20:01:42.475Z,5.75
2023-02-19T20:05:47.467Z,5.82
2023-02-19T20:09:49.626Z,6.05
2023-02-19T20:13:52.141Z,5.99
2023-02-19T20:17:54.486Z,5.84
2023-02-19T20:21:56.588Z,5.70
2023-02-19T20:25:54.688Z,5.60
2023-02-19T20:29:56.996Z,5.58
2023-02-19T20:33:55.515Z,5.53
2023-02-19T20:37:57.826Z,5.49
2023-02-19T20:41:55.525Z,5.58
2023-02-19T20:45:57.496Z,5.58
2023-02-19T20:49:55.840Z,5.58
2023-02-19T20:53:58.578Z,5.57
2023-02-19T20:57:56.553Z,5.68
2023-02-19T21:01:59.081Z,5.61
2023-02-19T21:05:57.682Z,5.55
2023-02-19T21:10:00.867Z,5.48
2023-02-19T21:14:00.619Z,5.32
2023-02-19T21:18:02.129Z,5.25
2023-02-19T21:22:00.478Z,4.98
2023-02-19T21:26:03.140Z,4.86
2023-02-19T21:30:01.576Z,4.85
2023-02-19T21:34:04.112Z,4.92
2023-02-19T21:38:03.694Z,4.97
2023-02-19T21:42:05.565Z,4.98
2023-02-19T21:46:03.836Z,4.98
2023-02-19T21:50:06.550Z,5.10
2023-02-19T21:54:04.630Z,5.16
2023-02-19T21:58:06.619Z,5.18
2023-02-19T22:02:04.677Z,5.19
2023-02-19T22:06:07.068Z,5.14
2023-02-19T22:10:01.682Z,5.17
2023-02-19T22:13:55.303Z,4.95
2023-02-19T22:17:47.587Z,4.67
2023-02-19T22:21:40.868Z,4.41
2023-02-19T22:25:35.449Z,4.48
2023-02-19T22:29:29.072Z,4.23
2023-02-19T22:33:20.467Z,4.17
2023-02-19T22:37:13.879Z,4.06
2023-02-19T22:41:05.616Z,4.18
2023-02-19T22:44:59.972Z,4.10
2023-02-19T22:48:51.895Z,3.96
2023-02-19T22:52:45.344Z,4.05
2023-02-19T22:56:37.809Z,4.08
2023-02-19T23:00:31.180Z,4.10
2023-02-19T23:04:25.692Z,4.06
2023-02-19T23:08:19.490Z,4.04
2023-02-19T23:12:16.590Z,3.94
2023-02-19T23:16:10.488Z,3.88
2023-02-19T23:20:03.027Z,3.83
2023-02-19T23:23:56.783Z,3.78
2023-02-19T23:27:29.799Z,3.87
2023-02-19T23:31:21.870Z,3.86
2023-02-19T23:35:15.502Z,3.88
2023-02-19T23:38:48.705Z,3.84
2023-02-19T23:42:40.590Z,3.80
2023-02-19T23:46:35.023Z,3.72
2023-02-19T23:50:27.689Z,3.66
2023-02-19T23:54:21.191Z,3.63
2023-02-19T23:58:12.871Z,3.61
